Monticello, Georgia
Current Conditions -  °F | °C
As of 1:55 AM on Friday 28 Nov 2014 (Local Time) from KCVC Reporting Station
Clear Clear  
Wind Chill: 34°   Ceiling: Unl
Heat Index: 34°   Visibility: 10mi
Dew Point: 27°   Wind: 3mph
Humidity: 75%   Direction: 310°NW
Pressure: 30.34"   Gusts: NA
Location:  33.3°N, 83.68°W
Report Text: KCVC 280655Z AUTO 31003KT 10SM CLR 01/M03 A3034 RMK AO2
Loading
Personal Weather Stations






























Interactive Weather Map New forecast layout! Learn more

10-Day Weather Forecast

Advertisements
Track Severe Weather on mobile